sensor_id;sensor_type;location;lat;lon;timestamp;temperature;humidity
36548;DHT22;22551;52.206;4.856;2024-03-23T00:56:36;7.20;99.90
36548;DHT22;22551;52.206;4.856;2024-03-23T01:01:38;7.10;99.90
36548;DHT22;22551;52.206;4.856;2024-03-23T01:06:40;7.00;99.90
36548;DHT22;22551;52.206;4.856;2024-03-23T01:11:44;6.90;99.90
36548;DHT22;22551;52.206;4.856;2024-03-23T01:16:48;6.80;99.90
36548;DHT22;22551;52.206;4.856;2024-03-23T01:21:50;6.70;99.90
36548;DHT22;22551;52.206;4.856;2024-03-23T01:26:54;6.60;99.90
36548;DHT22;22551;52.206;4.856;2024-03-23T01:31:56;6.50;99.90
36548;DHT22;22551;52.206;4.856;2024-03-23T01:36:58;6.40;99.90
36548;DHT22;22551;52.206;4.856;2024-03-23T01:42:02;6.30;99.90
36548;DHT22;22551;52.206;4.856;2024-03-23T01:47:06;6.30;99.90
36548;DHT22;22551;52.206;4.856;2024-03-23T03:00:47;5.40;99.90
36548;DHT22;22551;52.206;4.856;2024-03-23T03:05:55;5.30;99.90
36548;DHT22;22551;52.206;4.856;2024-03-23T03:10:57;5.30;99.90
36548;DHT22;22551;52.206;4.856;2024-03-23T03:16:01;5.20;99.90
36548;DHT22;22551;52.206;4.856;2024-03-23T03:21:03;5.10;99.90
36548;DHT22;22551;52.206;4.856;2024-03-23T03:26:09;5.10;99.90
36548;DHT22;22551;52.206;4.856;2024-03-23T03:31:12;5.00;99.90
36548;DHT22;22551;52.206;4.856;2024-03-23T03:36:15;5.00;99.90
36548;DHT22;22551;52.206;4.856;2024-03-23T03:41:18;5.00;99.90
36548;DHT22;22551;52.206;4.856;2024-03-23T03:46:22;5.00;99.90
36548;DHT22;22551;52.206;4.856;2024-03-23T03:51:24;4.90;99.90
36548;DHT22;22551;52.206;4.856;2024-03-23T03:56:26;4.80;99.90
36548;DHT22;22551;52.206;4.856;2024-03-23T04:01:32;4.70;99.90
36548;DHT22;22551;52.206;4.856;2024-03-23T04:06:34;4.70;99.90
36548;DHT22;22551;52.206;4.856;2024-03-23T05:19:53;4.60;99.90
36548;DHT22;22551;52.206;4.856;2024-03-23T05:24:56;4.70;99.90
36548;DHT22;22551;52.206;4.856;2024-03-23T05:50:40;5.50;99.90
36548;DHT22;22551;52.206;4.856;2024-03-23T05:55:43;5.50;99.90
36548;DHT22;22551;52.206;4.856;2024-03-23T06:00:46;5.60;99.90
36548;DHT22;22551;52.206;4.856;2024-03-23T06:05:50;5.60;99.90
36548;DHT22;22551;52.206;4.856;2024-03-23T06:10:53;5.70;99.90
36548;DHT22;22551;52.206;4.856;2024-03-23T06:15:55;5.70;99.90
36548;DHT22;22551;52.206;4.856;2024-03-23T06:20:59;5.80;99.90
36548;DHT22;22551;52.206;4.856;2024-03-23T06:26:01;5.80;99.90
36548;DHT22;22551;52.206;4.856;2024-03-23T06:31:03;5.90;99.90
36548;DHT22;22551;52.206;4.856;2024-03-23T06:36:12;6.00;99.90
36548;DHT22;22551;52.206;4.856;2024-03-23T06:41:14;6.20;99.90
36548;DHT22;22551;52.206;4.856;2024-03-23T06:46:16;6.30;99.90
36548;DHT22;22551;52.206;4.856;2024-03-23T06:51:20;6.40;99.90
36548;DHT22;22551;52.206;4.856;2024-03-23T06:56:22;6.40;99.90
36548;DHT22;22551;52.206;4.856;2024-03-23T07:01:24;6.40;99.90
36548;DHT22;22551;52.206;4.856;2024-03-23T07:06:28;6.50;99.90
36548;DHT22;22551;52.206;4.856;2024-03-23T07:11:30;6.50;99.90
36548;DHT22;22551;52.206;4.856;2024-03-23T07:16:32;6.50;99.90
36548;DHT22;22551;52.206;4.856;2024-03-23T07:21:35;6.60;99.90
36548;DHT22;22551;52.206;4.856;2024-03-23T07:26:38;6.80;99.90
36548;DHT22;22551;52.206;4.856;2024-03-23T07:31:40;6.80;99.90
36548;DHT22;22551;52.206;4.856;2024-03-23T07:36:43;7.10;99.90
36548;DHT22;22551;52.206;4.856;2024-03-23T07:41:46;7.20;99.90
36548;DHT22;22551;52.206;4.856;2024-03-23T07:46:48;7.30;99.90
36548;DHT22;22551;52.206;4.856;2024-03-23T07:51:51;7.20;99.90
36548;DHT22;22551;52.206;4.856;2024-03-23T07:56:54;7.20;99.90
36548;DHT22;22551;52.206;4.856;2024-03-23T08:01:56;7.20;99.90
36548;DHT22;22551;52.206;4.856;2024-03-23T08:06:59;7.50;99.90
36548;DHT22;22551;52.206;4.856;2024-03-23T08:12:01;7.70;99.90
36548;DHT22;22551;52.206;4.856;2024-03-23T08:17:04;7.40;99.90
36548;DHT22;22551;52.206;4.856;2024-03-23T08:22:07;7.40;99.90
36548;DHT22;22551;52.206;4.856;2024-03-23T08:27:09;7.70;99.90
36548;DHT22;22551;52.206;4.856;2024-03-23T08:32:12;7.70;99.90
36548;DHT22;22551;52.206;4.856;2024-03-23T08:37:16;7.50;99.90
36548;DHT22;22551;52.206;4.856;2024-03-23T08:42:18;7.50;99.90
36548;DHT22;22551;52.206;4.856;2024-03-23T08:47:21;7.80;99.90
36548;DHT22;22551;52.206;4.856;2024-03-23T10:00:44;10.00;99.90
36548;DHT22;22551;52.206;4.856;2024-03-23T10:06:01;9.40;99.90
36548;DHT22;22551;52.206;4.856;2024-03-23T10:11:13;9.00;99.90
36548;DHT22;22551;52.206;4.856;2024-03-23T10:16:24;9.40;99.90
36548;DHT22;22551;52.206;4.856;2024-03-23T10:21:27;9.00;99.90
36548;DHT22;22551;52.206;4.856;2024-03-23T10:26:30;8.80;99.90
36548;DHT22;22551;52.206;4.856;2024-03-23T10:31:34;8.90;99.90
36548;DHT22;22551;52.206;4.856;2024-03-23T10:36:38;9.10;99.90
36548;DHT22;22551;52.206;4.856;2024-03-23T10:41:43;8.90;99.90
36548;DHT22;22551;52.206;4.856;2024-03-23T10:46:48;9.30;99.90
36548;DHT22;22551;52.206;4.856;2024-03-23T10:51:51;9.30;99.90
36548;DHT22;22551;52.206;4.856;2024-03-23T10:56:59;9.00;99.90
36548;DHT22;22551;52.206;4.856;2024-03-23T11:02:06;9.20;99.90
36548;DHT22;22551;52.206;4.856;2024-03-23T11:07:29;9.70;99.90
36548;DHT22;22551;52.206;4.856;2024-03-23T12:21:11;11.00;99.90
36548;DHT22;22551;52.206;4.856;2024-03-23T12:26:13;10.80;99.90
36548;DHT22;22551;52.206;4.856;2024-03-23T12:31:16;10.20;99.90
36548;DHT22;22551;52.206;4.856;2024-03-23T12:36:19;10.30;99.90
36548;DHT22;22551;52.206;4.856;2024-03-23T12:41:22;10.00;99.90
36548;DHT22;22551;52.206;4.856;2024-03-23T12:46:24;10.20;99.90
36548;DHT22;22551;52.206;4.856;2024-03-23T12:51:28;11.10;99.90
36548;DHT22;22551;52.206;4.856;2024-03-23T12:56:30;10.80;99.90
36548;DHT22;22551;52.206;4.856;2024-03-23T13:01:32;11.00;99.90
36548;DHT22;22551;52.206;4.856;2024-03-23T13:06:36;10.60;99.90
36548;DHT22;22551;52.206;4.856;2024-03-23T13:11:38;10.80;99.90
36548;DHT22;22551;52.206;4.856;2024-03-23T13:16:40;10.00;99.90
36548;DHT22;22551;52.206;4.856;2024-03-23T13:21:44;9.20;99.90
36548;DHT22;22551;52.206;4.856;2024-03-23T13:26:46;9.30;99.90
36548;DHT22;22551;52.206;4.856;2024-03-23T18:20:15;7.20;99.90
36548;DHT22;22551;52.206;4.856;2024-03-23T18:25:18;7.30;99.90
36548;DHT22;22551;52.206;4.856;2024-03-23T18:30:20;7.20;99.90
36548;DHT22;22551;52.206;4.856;2024-03-23T18:35:23;7.20;99.90
36548;DHT22;22551;52.206;4.856;2024-03-23T18:40:27;7.00;99.90
36548;DHT22;22551;52.206;4.856;2024-03-23T18:45:29;6.90;99.90
36548;DHT22;22551;52.206;4.856;2024-03-23T18:50:34;6.90;99.90
36548;DHT22;22551;52.206;4.856;2024-03-23T18:55:38;6.80;99.90
36548;DHT22;22551;52.206;4.856;2024-03-23T19:00:40;6.70;99.90
36548;DHT22;22551;52.206;4.856;2024-03-23T19:05:51;6.60;99.90
36548;DHT22;22551;52.206;4.856;2024-03-23T19:10:54;6.50;99.90
36548;DHT22;22551;52.206;4.856;2024-03-23T19:16:00;6.40;99.90
36548;DHT22;22551;52.206;4.856;2024-03-23T19:21:04;6.40;99.90
36548;DHT22;22551;52.206;4.856;2024-03-23T19:26:06;6.30;99.90
36548;DHT22;22551;52.206;4.856;2024-03-23T19:31:09;6.20;99.90
36548;DHT22;22551;52.206;4.856;2024-03-23T19:36:13;6.20;99.90
36548;DHT22;22551;52.206;4.856;2024-03-23T19:41:16;6.20;99.90
36548;DHT22;22551;52.206;4.856;2024-03-23T19:46:18;6.30;99.90
36548;DHT22;22551;52.206;4.856;2024-03-23T19:51:22;6.30;99.90
36548;DHT22;22551;52.206;4.856;2024-03-23T19:56:24;6.20;99.90
36548;DHT22;22551;52.206;4.856;2024-03-23T20:01:26;6.20;99.90
36548;DHT22;22551;52.206;4.856;2024-03-23T20:06:30;6.10;99.90
36548;DHT22;22551;52.206;4.856;2024-03-23T20:11:32;6.00;99.90
36548;DHT22;22551;52.206;4.856;2024-03-23T20:16:35;6.00;99.90
36548;DHT22;22551;52.206;4.856;2024-03-23T20:21:39;5.90;99.90
36548;DHT22;22551;52.206;4.856;2024-03-23T20:26:42;5.90;99.90
36548;DHT22;22551;52.206;4.856;2024-03-23T20:31:44;5.80;99.90
36548;DHT22;22551;52.206;4.856;2024-03-23T20:36:48;5.80;99.90
36548;DHT22;22551;52.206;4.856;2024-03-23T20:41:50;5.70;99.90
36548;DHT22;22551;52.206;4.856;2024-03-23T20:46:52;5.60;99.90
36548;DHT22;22551;52.206;4.856;2024-03-23T20:51:56;5.60;99.90
36548;DHT22;22551;52.206;4.856;2024-03-23T20:56:59;5.60;99.90
36548;DHT22;22551;52.206;4.856;2024-03-23T21:02:01;5.60;99.90
36548;DHT22;22551;52.206;4.856;2024-03-23T21:07:04;5.70;99.90
36548;DHT22;22551;52.206;4.856;2024-03-23T21:12:07;5.70;99.90
36548;DHT22;22551;52.206;4.856;2024-03-23T21:17:10;5.70;99.90
36548;DHT22;22551;52.206;4.856;2024-03-23T21:22:14;5.70;99.90
36548;DHT22;22551;52.206;4.856;2024-03-23T21:27:16;5.80;99.90
36548;DHT22;22551;52.206;4.856;2024-03-23T21:32:18;5.80;99.90
36548;DHT22;22551;52.206;4.856;2024-03-23T21:37:23;5.90;99.90
36548;DHT22;22551;52.206;4.856;2024-03-23T21:42:25;5.90;99.90
36548;DHT22;22551;52.206;4.856;2024-03-23T21:52:39;5.90;99.90
36548;DHT22;22551;52.206;4.856;2024-03-23T21:57:47;5.90;99.90
36548;DHT22;22551;52.206;4.856;2024-03-23T22:02:49;5.90;99.90
36548;DHT22;22551;52.206;4.856;2024-03-23T22:07:53;6.00;99.90
36548;DHT22;22551;52.206;4.856;2024-03-23T22:12:55;6.00;99.90
36548;DHT22;22551;52.206;4.856;2024-03-23T22:17:57;6.10;99.90
36548;DHT22;22551;52.206;4.856;2024-03-23T22:23:03;6.20;99.90
36548;DHT22;22551;52.206;4.856;2024-03-23T22:28:07;6.20;99.90
36548;DHT22;22551;52.206;4.856;2024-03-23T22:33:09;6.20;99.90
36548;DHT22;22551;52.206;4.856;2024-03-23T22:38:13;6.30;99.90
36548;DHT22;22551;52.206;4.856;2024-03-23T22:43:15;6.30;99.90
36548;DHT22;22551;52.206;4.856;2024-03-23T22:48:17;6.40;99.90
36548;DHT22;22551;52.206;4.856;2024-03-23T22:53:20;6.40;99.90
36548;DHT22;22551;52.206;4.856;2024-03-23T22:58:23;6.50;99.90
36548;DHT22;22551;52.206;4.856;2024-03-23T23:03:27;6.50;99.90
36548;DHT22;22551;52.206;4.856;2024-03-23T23:08:31;6.50;99.90
36548;DHT22;22551;52.206;4.856;2024-03-23T23:13:33;6.50;99.90
36548;DHT22;22551;52.206;4.856;2024-03-23T23:18:35;6.50;99.90
36548;DHT22;22551;52.206;4.856;2024-03-23T23:23:39;6.50;99.90
36548;DHT22;22551;52.206;4.856;2024-03-23T23:28:41;6.40;99.90
36548;DHT22;22551;52.206;4.856;2024-03-23T23:33:43;6.40;99.90
36548;DHT22;22551;52.206;4.856;2024-03-23T23:38:49;6.40;99.90
36548;DHT22;22551;52.206;4.856;2024-03-23T23:43:55;6.40;99.90
36548;DHT22;22551;52.206;4.856;2024-03-23T23:48:59;6.40;99.90
36548;DHT22;22551;52.206;4.856;2024-03-23T23:54:03;6.30;99.90
36548;DHT22;22551;52.206;4.856;2024-03-23T23:59:05;6.40;99.90
